Terminal Aerodrome Forecast
Issued by NWS

Home | Current Version | Previous Version | Text Only | Print | Product List | Glossary On
Versions: 1 2 3 4 5 6 7 8 9 10 11 12 13 14 15 16 17 18 19 20 21
000
FTUS41 KGYX 231700
TAFRKD
TAF
KRKD 231739Z 2318/2418 20008KT P6SM SCT050 SCT250
     FM240000 24010KT 5SM -TSRA BKN050CB
      TEMPO 2400/2402 1SM +TSRA BKN025CB OVC040
     FM240500 30005KT P6SM SCT020 BKN100
     FM240700 33004KT 2SM BR SCT007 BKN015 BKN100
     FM241200 01007KT P6SM SCT040 BKN120
      AMD LTD TO CLD VIS AND WIND=

USA.gov is the U.S. government's official web portal to all federal, state and local government web resources and services.